Time;durP1;ratioP1;P1;durP2;ratioP2;P2;SDS_P1;SDS_P2;PMS_P1;PMS_P2;Temp;Humidity;BMP_temperature;BMP_pressure;BME280_temperature;BME280_humidity;BME280_pressure;Samples;Min_cycle;Max_cycle;Signal;HPM_P1;HPM_P2
2021/12/18 00:00:34;;;;;;;26.25;12.90;;;;;;;7.33;99.56;103999.66;5007833;28;20032;-65
2021/12/18 00:03:00;;;;;;;22.83;11.30;;;;;;;7.65;97.12;104005.06;5025687;28;20112;-65
2021/12/18 00:05:25;;;;;;;27.42;13.18;;;;;;;7.37;99.00;104001.13;5026214;28;20053;-65
2021/12/18 00:07:50;;;;;;;27.42;12.25;;;;;;;7.38;99.56;104002.88;5027119;28;20045;-65
2021/12/18 00:10:20;;;;;;;28.50;12.50;;;;;;;7.29;100.00;103998.19;5010948;28;20088;-65
2021/12/18 00:12:49;;;;;;;27.33;12.55;;;;;;;7.26;100.00;103998.47;5007714;28;20030;-65
2021/12/18 00:15:15;;;;;;;27.15;11.32;;;;;;;7.32;100.00;104002.53;5007519;28;20022;-65
2021/12/18 00:17:40;;;;;;;29.58;14.13;;;;;;;7.30;100.00;103997.22;5007744;28;20034;-65
2021/12/18 00:20:06;;;;;;;27.10;13.35;;;;;;;7.38;99.79;103996.53;5010602;28;20116;-66
2021/12/18 00:22:31;;;;;;;26.70;12.05;;;;;;;7.25;100.00;103997.59;5026241;28;20052;-66
2021/12/18 00:24:57;;;;;;;26.98;13.63;;;;;;;7.22;100.00;103988.78;5027163;28;20388;-65
2021/12/18 00:27:22;;;;;;;25.42;11.20;;;;;;;7.58;98.19;103986.59;5024368;28;20031;-65
2021/12/18 00:29:47;;;;;;;27.77;12.10;;;;;;;7.40;98.83;103989.94;5024070;28;20101;-65
2021/12/18 00:32:13;;;;;;;24.10;12.68;;;;;;;7.29;100.00;103977.16;5013758;28;20041;-65
2021/12/18 00:34:39;;;;;;;23.17;11.35;;;;;;;7.38;99.72;103980.13;5003850;28;20057;-65
2021/12/18 00:37:04;;;;;;;23.95;10.60;;;;;;;7.20;100.00;103978.00;5011557;28;20439;-65
2021/12/18 00:39:32;;;;;;;21.15;10.27;;;;;;;7.24;99.28;103979.44;5024047;28;20033;-65
2021/12/18 00:44:23;;;;;;;19.85;9.30;;;;;;;7.46;96.83;103973.00;5027164;28;20501;-65
2021/12/18 00:46:48;;;;;;;12.63;5.75;;;;;;;7.68;95.26;103965.66;5026463;28;20033;-65
2021/12/18 00:49:18;;;;;;;15.02;7.00;;;;;;;7.35;96.39;103970.34;5020010;28;20073;-65
2021/12/18 00:51:43;;;;;;;13.98;6.53;;;;;;;7.23;97.61;103977.72;5021911;28;20022;-65
2021/12/18 00:54:09;;;;;;;15.68;7.22;;;;;;;7.18;98.04;103969.03;5025897;28;20052;-65
2021/12/18 00:56:35;;;;;;;15.90;6.43;;;;;;;7.31;96.41;103968.88;5024873;28;20091;-65
2021/12/18 00:59:00;;;;;;;15.38;6.85;;;;;;;7.25;97.23;103964.78;5026770;28;20026;-65
2021/12/18 01:01:27;;;;;;;14.18;6.05;;;;;;;7.16;97.59;103957.38;5020460;28;20029;-65
2021/12/18 01:03:56;;;;;;;13.13;6.03;;;;;;;7.16;98.18;103960.13;5006422;28;20525;-65
2021/12/18 01:06:23;;;;;;;13.32;6.25;;;;;;;7.14;97.77;103964.81;5017703;28;20029;-65
2021/12/18 01:08:55;;;;;;;12.13;5.53;;;;;;;7.12;98.16;103955.91;5016822;28;20049;-65
2021/12/18 01:16:47;;;;;;;12.93;5.63;;;;;;;7.11;98.11;103943.25;5025980;28;20072;-65
2021/12/18 01:22:44;;;;;;;11.10;5.35;;;;;;;7.13;98.07;103943.09;5017335;28;20099;-65
2021/12/18 01:24:48;;;;;;;12.48;5.28;;;;;;;7.21;97.35;103946.91;5016858;28;20455;-65
2021/12/18 01:27:14;;;;;;;11.85;5.63;;;;;;;7.33;95.99;103949.59;5025180;28;20098;-65
2021/12/18 01:29:39;;;;;;;14.10;5.97;;;;;;;7.18;97.86;103951.78;5025997;28;20057;-65
2021/12/18 01:32:05;;;;;;;12.02;5.65;;;;;;;7.21;97.26;103952.38;5011167;28;20160;-65
2021/12/18 01:34:31;;;;;;;15.10;6.15;;;;;;;7.16;97.70;103951.91;5003871;28;20044;-65
2021/12/18 01:36:56;;;;;;;13.60;6.00;;;;;;;7.16;98.12;103960.13;5013296;28;20029;-64
2021/12/18 01:39:21;;;;;;;12.63;5.40;;;;;;;7.16;97.83;103964.72;5014710;28;20405;-65
2021/12/18 01:42:09;;;;;;;11.88;5.20;;;;;;;7.40;95.65;103956.25;5021074;28;20124;-65
2021/12/18 01:52:55;;;;;;;11.93;6.28;;;;;;;7.39;94.98;103966.31;5024705;28;20040;-65
2021/12/18 01:55:30;;;;;;;14.05;5.55;;;;;;;7.29;96.41;103977.16;5024524;28;20444;-65
2021/12/18 01:57:55;;;;;;;14.13;6.25;;;;;;;7.50;94.53;103976.31;5025350;28;20033;-65
2021/12/18 02:00:26;;;;;;;13.38;6.47;;;;;;;7.19;96.99;103978.97;5020705;28;20621;-64
2021/12/18 02:02:51;;;;;;;14.15;6.20;;;;;;;7.24;96.68;103979.44;5005043;28;20105;-64
2021/12/18 02:05:16;;;;;;;13.80;6.30;;;;;;;7.14;97.48;103983.97;5016850;28;20029;-65
2021/12/18 02:07:42;;;;;;;13.73;6.38;;;;;;;7.07;97.82;103974.56;5024538;28;20030;-65
2021/12/18 02:10:15;;;;;;;14.88;6.88;;;;;;;7.32;96.23;103983.41;5011839;28;20026;-65
2021/12/18 02:12:52;;;;;;;14.50;6.78;;;;;;;7.27;96.03;103981.91;5015049;28;20064;-65
2021/12/18 02:19:35;;;;;;;12.97;6.00;;;;;;;7.32;96.53;103980.66;5038602;28;20036;-65
2021/12/18 02:20:56;;;;;;;17.55;7.97;;;;;;;7.11;97.17;103975.19;5024774;28;20036;-65
2021/12/18 02:23:22;;;;;;;16.45;7.78;;;;;;;7.04;98.13;103974.81;5016105;28;20084;-65
2021/12/18 02:25:48;;;;;;;17.80;8.38;;;;;;;7.01;98.42;103973.22;5005447;28;20030;-65
2021/12/18 02:28:20;;;;;;;16.45;7.07;;;;;;;7.13;97.45;103974.03;5014579;28;20103;-65
2021/12/18 02:30:48;;;;;;;14.13;6.40;;;;;;;7.06;98.02;103966.50;5020240;28;20817;-65
2021/12/18 02:33:13;;;;;;;14.07;6.40;;;;;;;7.56;94.13;103962.13;5005014;28;20053;-65
2021/12/18 02:35:46;;;;;;;14.82;7.30;;;;;;;7.17;96.99;103967.31;5004544;28;20022;-65
2021/12/18 02:38:20;;;;;;;17.65;8.10;;;;;;;7.35;95.91;103959.41;5003567;28;20037;-65
2021/12/18 02:43:28;;;;;;;19.75;9.73;;;;;;;7.20;96.25;103963.47;4985121;28;20081;-65
2021/12/18 02:45:59;;;;;;;16.02;7.65;;;;;;;7.06;98.20;103950.09;5000954;28;20080;-65
2021/12/18 02:48:24;;;;;;;18.67;7.78;;;;;;;7.08;98.11;103950.81;5024171;28;20029;-65
2021/12/18 02:50:50;;;;;;;16.45;7.50;;;;;;;6.98;99.01;103946.16;5008370;28;20026;-65
2021/12/18 02:53:15;;;;;;;19.15;9.23;;;;;;;7.40;95.85;103946.19;5005529;28;20366;-65
2021/12/18 02:55:40;;;;;;;20.33;9.90;;;;;;;6.99;98.77;103936.06;5003168;28;20556;-66
2021/12/18 02:58:05;;;;;;;19.05;8.93;;;;;;;7.13;98.11;103943.97;5007056;28;20064;-66
2021/12/18 03:00:31;;;;;;;19.70;10.32;;;;;;;6.98;99.58;103929.75;5015548;23;20058;-65
2021/12/18 03:02:57;;;;;;;19.77;9.95;;;;;;;6.99;99.61;103927.88;5007247;28;20344;-65
2021/12/18 03:05:33;;;;;;;20.10;10.35;;;;;;;6.93;100.00;103929.28;5003703;28;20474;-65
2021/12/18 03:08:08;;;;;;;20.80;9.95;;;;;;;7.00;100.00;103930.50;5005611;28;20029;-65
2021/12/18 03:24:23;;;;;;;16.20;7.82;;;;;;;7.18;97.71;103922.56;5005859;28;20133;-65
2021/12/18 03:26:49;;;;;;;18.98;8.85;;;;;;;7.22;97.72;103926.78;5004508;28;20477;-65
2021/12/18 03:29:15;;;;;;;15.30;8.07;;;;;;;7.13;98.00;103924.84;5004236;28;20040;-65
2021/12/18 03:31:40;;;;;;;18.20;8.75;;;;;;;6.95;99.28;103923.69;5004534;28;20102;-65
2021/12/18 03:34:05;;;;;;;16.52;8.00;;;;;;;6.93;100.00;103934.75;5004474;28;20029;-65
2021/12/18 03:36:30;;;;;;;15.68;7.63;;;;;;;6.87;100.00;103935.28;5004139;28;20022;-65
2021/12/18 03:38:56;;;;;;;16.58;8.80;;;;;;;6.88;100.00;103922.47;5022695;28;20048;-65
2021/12/18 03:41:21;;;;;;;12.80;6.35;;;;;;;6.98;100.00;103927.03;5010350;28;20030;-65
2021/12/18 03:43:47;;;;;;;15.57;7.93;;;;;;;6.88;99.90;103937.00;5004626;28;20057;-65
2021/12/18 03:46:12;;;;;;;18.27;8.60;;;;;;;6.83;100.00;103931.06;5002984;28;20026;-65
2021/12/18 03:48:37;;;;;;;17.17;8.35;;;;;;;6.81;100.00;103929.47;5004852;28;20026;-65
2021/12/18 03:51:03;;;;;;;17.33;9.00;;;;;;;6.76;100.00;103925.25;5001792;28;20034;-67
2021/12/18 03:53:28;;;;;;;18.65;8.73;;;;;;;6.85;100.00;103926.34;5004570;28;20030;-65
2021/12/18 03:55:53;;;;;;;18.27;8.65;;;;;;;6.80;100.00;103933.22;5003080;28;20687;-65
2021/12/18 03:58:19;;;;;;;17.42;8.98;;;;;;;6.76;100.00;103930.72;5020417;28;20040;-65
2021/12/18 04:00:44;;;;;;;17.35;8.43;;;;;;;6.87;100.00;103928.94;5021424;28;20054;-65
2021/12/18 04:03:09;;;;;;;19.08;9.60;;;;;;;6.88;99.20;103934.25;5008030;28;20056;-66
2021/12/18 04:05:35;;;;;;;17.83;8.98;;;;;;;6.78;100.00;103930.59;5007448;28;20081;-65
2021/12/18 04:08:08;;;;;;;20.25;9.43;;;;;;;6.76;100.00;103928.00;5016408;28;20459;-65
2021/12/18 04:10:36;;;;;;;18.88;9.25;;;;;;;6.74;100.00;103927.28;5023322;28;20441;-65
2021/12/18 04:13:01;;;;;;;20.98;9.95;;;;;;;6.75;100.00;103928.13;5028118;28;20021;-69
2021/12/18 04:15:26;;;;;;;17.42;8.15;;;;;;;6.89;100.00;103925.06;5019976;28;20033;-65
2021/12/18 04:17:52;;;;;;;18.65;9.27;;;;;;;6.82;100.00;103931.19;5027025;28;20594;-65
2021/12/18 04:20:17;;;;;;;18.73;9.23;;;;;;;6.77;100.00;103923.38;5026382;28;20061;-65
2021/12/18 04:22:42;;;;;;;17.63;9.45;;;;;;;6.78;100.00;103932.44;5019644;28;20034;-65
2021/12/18 04:25:08;;;;;;;18.20;9.20;;;;;;;6.76;100.00;103930.72;5007512;28;20030;-65
2021/12/18 04:27:33;;;;;;;20.35;9.85;;;;;;;6.75;100.00;103931.72;5007182;28;20029;-66
2021/12/18 04:29:58;;;;;;;18.60;9.70;;;;;;;6.76;100.00;103936.19;5006243;28;20149;-65
2021/12/18 04:32:24;;;;;;;19.05;9.20;;;;;;;6.76;100.00;103933.47;5012872;28;20543;-65
2021/12/18 04:34:49;;;;;;;19.70;9.15;;;;;;;6.83;100.00;103941.13;5026393;28;20033;-65
2021/12/18 04:37:14;;;;;;;18.40;9.68;;;;;;;6.78;100.00;103932.44;5026038;28;20040;-65
2021/12/18 04:39:40;;;;;;;21.98;10.77;;;;;;;6.81;100.00;103934.94;5022660;28;20057;-65
2021/12/18 04:42:05;;;;;;;21.05;10.15;;;;;;;6.76;100.00;103936.19;5006170;28;20037;-66
2021/12/18 04:44:30;;;;;;;21.50;10.48;;;;;;;6.76;100.00;103930.72;5007997;28;20143;-65
2021/12/18 04:46:56;;;;;;;21.65;10.93;;;;;;;6.78;100.00;103938.78;5008073;28;20018;-66
2021/12/18 04:49:21;;;;;;;21.00;9.77;;;;;;;6.79;100.00;103935.03;5006891;28;20018;-66
2021/12/18 04:51:47;;;;;;;21.23;9.70;;;;;;;6.82;100.00;103944.84;5007184;28;20028;-66
2021/12/18 04:54:12;;;;;;;18.88;8.98;;;;;;;6.86;100.00;103949.06;5007524;28;20033;-66
2021/12/18 04:56:38;;;;;;;19.20;9.02;;;;;;;6.89;100.00;103948.78;5007717;28;20018;-66
2021/12/18 04:59:04;;;;;;;20.85;10.95;;;;;;;6.90;100.00;103954.16;5026548;28;20029;-67
2021/12/18 05:01:35;;;;;;;19.55;10.07;;;;;;;6.98;100.00;103950.75;5009091;28;20052;-66
2021/12/18 05:04:00;;;;;;;21.35;10.02;;;;;;;6.94;100.00;103960.19;5008355;28;20036;-66
2021/12/18 05:06:29;;;;;;;22.23;10.45;;;;;;;6.82;100.00;103950.31;5006015;28;20026;-66
2021/12/18 05:08:54;;;;;;;21.75;11.23;;;;;;;6.91;100.00;103950.41;5004927;28;20122;-66
2021/12/18 05:11:19;;;;;;;22.52;9.98;;;;;;;6.88;100.00;103956.13;5005626;28;20523;-66
2021/12/18 05:13:44;;;;;;;23.33;11.13;;;;;;;6.82;100.00;103945.72;5007027;28;20101;-65
2021/12/18 05:16:10;;;;;;;23.45;10.50;;;;;;;6.76;100.00;103947.13;5016958;28;20574;-66
2021/12/18 05:18:35;;;;;;;21.15;10.25;;;;;;;6.87;100.00;103953.53;5024435;28;20033;-66
2021/12/18 05:21:00;;;;;;;23.27;11.05;;;;;;;6.78;100.00;103946.09;5026214;28;20467;-66
2021/12/18 05:23:25;;;;;;;21.83;9.63;;;;;;;6.82;100.00;103942.13;5009924;28;20053;-66
2021/12/18 05:25:51;;;;;;;23.48;8.88;;;;;;;6.80;100.00;103941.41;5004965;28;20443;-66
2021/12/18 05:28:16;;;;;;;13.10;6.07;;;;;;;7.12;99.25;103947.69;5005226;28;20084;-66
2021/12/18 05:30:41;;;;;;;20.02;8.10;;;;;;;7.03;99.25;103956.69;5005908;28;20026;-65
2021/12/18 05:33:07;;;;;;;19.58;8.77;;;;;;;6.94;99.79;103957.47;5006405;28;20033;-66
2021/12/18 05:35:32;;;;;;;17.40;8.18;;;;;;;6.85;100.00;103955.53;5005097;28;20075;-66
2021/12/18 05:38:04;;;;;;;19.20;8.35;;;;;;;6.86;100.00;103955.41;5006698;28;20115;-66
2021/12/18 05:40:32;;;;;;;20.23;9.40;;;;;;;6.91;100.00;103952.28;5019305;28;20624;-66
2021/12/18 05:42:57;;;;;;;23.30;10.15;;;;;;;6.75;100.00;103950.84;5006292;28;20064;-65
2021/12/18 05:45:23;;;;;;;21.50;9.32;;;;;;;6.83;100.00;103962.97;5004599;28;20053;-66
2021/12/18 05:47:49;;;;;;;26.02;10.05;;;;;;;6.80;100.00;103955.06;5005670;28;20088;-66
2021/12/18 05:50:17;;;;;;;26.30;9.73;;;;;;;6.74;100.00;103951.84;5005318;28;20056;-66
2021/12/18 05:52:44;;;;;;;;;;;;;;;6.81;100.00;103954.06;5005856;28;20029;-65
2021/12/18 05:55:09;;;;;;;28.73;10.23;;;;;;;6.82;100.00;103950.31;5014517;28;20311;-65
2021/12/18 05:57:35;;;;;;;23.15;10.93;;;;;;;6.80;100.00;103955.06;5023360;28;20032;-66
2021/12/18 06:00:00;;;;;;;25.25;10.57;;;;;;;6.83;100.00;103954.78;5005469;28;20145;-66
2021/12/18 06:02:25;;;;;;;28.15;11.52;;;;;;;6.80;100.00;103947.72;5005670;28;20026;-66
2021/12/18 06:04:51;;;;;;;25.52;11.23;;;;;;;6.83;100.00;103949.31;5003173;28;20045;-66
2021/12/18 06:07:28;;;;;;;27.30;10.30;;;;;;;6.88;100.00;103949.78;5009579;28;20030;-66
2021/12/18 06:09:54;;;;;;;25.00;10.23;;;;;;;6.77;100.00;103945.25;5012433;28;20026;-66
2021/12/18 06:12:19;;;;;;;26.98;11.90;;;;;;;6.92;100.00;103940.34;5004979;28;20029;-66
2021/12/18 06:14:44;;;;;;;29.10;11.48;;;;;;;6.76;100.00;103941.66;5005756;28;20061;-66
2021/12/18 06:17:09;;;;;;;30.63;12.63;;;;;;;6.78;100.00;103932.44;5004129;28;20025;-65
2021/12/18 06:19:35;;;;;;;29.92;11.10;;;;;;;6.76;100.00;103935.31;5004057;28;20634;-65
2021/12/18 06:22:00;;;;;;;32.20;12.23;;;;;;;6.76;100.00;103935.31;5001393;28;20041;-65
2021/12/18 06:24:26;;;;;;;31.52;13.55;;;;;;;6.77;100.00;103926.13;5005246;28;20033;-65
2021/12/18 06:26:52;;;;;;;33.80;13.10;;;;;;;6.81;100.00;103932.19;5004996;28;20036;-65
2021/12/18 06:29:17;;;;;;;30.88;12.23;;;;;;;6.82;100.00;103933.94;5005078;28;20030;-65
2021/12/18 06:31:42;;;;;;;29.42;11.15;;;;;;;6.83;100.00;103935.66;5004542;28;20068;-65
2021/12/18 06:34:08;;;;;;;33.15;11.30;;;;;;;6.84;100.00;103932.78;5004188;28;20033;-66
2021/12/18 06:36:33;;;;;;;33.50;11.50;;;;;;;6.84;100.00;103940.13;5001859;28;20061;-65
2021/12/18 06:38:58;;;;;;;35.05;12.98;;;;;;;6.87;100.00;103926.22;5004023;28;20299;-65
2021/12/18 06:41:23;;;;;;;34.25;12.23;;;;;;;6.89;100.00;103938.72;5003286;28;20034;-65
2021/12/18 06:43:49;;;;;;;35.15;13.43;;;;;;;6.87;100.00;103939.88;5003949;28;20529;-65
2021/12/18 06:46:14;;;;;;;32.55;12.40;;;;;;;6.88;100.00;103941.59;5010003;28;20475;-65
2021/12/18 06:48:39;;;;;;;30.92;11.90;;;;;;;6.87;100.00;103940.75;5024417;28;20634;-65
2021/12/18 06:51:05;;;;;;;36.10;12.07;;;;;;;6.88;100.00;103933.41;5022175;28;20170;-65
2021/12/18 06:53:30;;;;;;;32.88;11.65;;;;;;;6.88;100.00;103937.00;5024848;28;20104;-65
2021/12/18 06:55:56;;;;;;;37.20;12.88;;;;;;;6.89;100.00;103936.00;5006989;28;20040;-65
2021/12/18 06:58:21;;;;;;;37.97;13.00;;;;;;;6.90;100.00;103943.22;5004714;28;20037;-65
2021/12/18 07:00:47;;;;;;;35.72;13.98;;;;;;;6.91;100.00;103936.75;5002936;28;20065;-65
2021/12/18 07:03:12;;;;;;;41.42;12.45;;;;;;;6.92;100.00;103935.75;5003430;28;20053;-65
2021/12/18 07:05:37;;;;;;;38.85;12.93;;;;;;;6.94;100.00;103935.59;5001780;28;20029;-64
2021/12/18 07:08:03;;;;;;;37.25;12.88;;;;;;;6.95;100.00;103940.09;5002804;28;20029;-66
2021/12/18 07:10:31;;;;;;;37.13;12.38;;;;;;;6.94;100.00;103938.34;5010433;28;20364;-65
2021/12/18 07:12:56;;;;;;;41.72;12.65;;;;;;;6.96;100.00;103941.81;5006344;28;20116;-64
2021/12/18 07:15:21;;;;;;;39.80;12.65;;;;;;;6.95;100.00;103934.63;5014842;28;20669;-64
2021/12/18 07:17:46;;;;;;;31.90;11.18;;;;;;;6.91;100.00;103936.75;5021160;28;20018;-65
2021/12/18 07:20:12;;;;;;;30.52;11.77;;;;;;;6.93;100.00;103950.28;5003060;28;20026;-65
2021/12/18 07:22:38;;;;;;;28.90;10.88;;;;;;;6.91;100.00;103944.94;5003251;28;20476;-66
2021/12/18 07:25:03;;;;;;;25.25;9.63;;;;;;;6.90;100.00;103942.34;5000751;28;20046;-67
2021/12/18 07:27:29;;;;;;;29.98;9.73;;;;;;;6.88;100.00;103942.47;5004614;28;20030;-66
2021/12/18 07:29:54;;;;;;;25.70;9.60;;;;;;;6.89;100.00;103946.06;5002680;28;20022;-65
2021/12/18 07:32:19;;;;;;;24.88;10.23;;;;;;;6.88;100.00;103941.59;5005441;28;20026;-66
2021/12/18 07:34:45;;;;;;;27.67;9.23;;;;;;;6.87;100.00;103942.59;5005570;28;20049;-65
2021/12/18 07:37:10;;;;;;;29.67;9.90;;;;;;;6.87;100.00;103948.94;4988402;28;20030;-66
2021/12/18 07:39:35;;;;;;;27.83;10.80;;;;;;;6.87;100.00;103945.34;4988722;28;20034;-66
2021/12/18 07:42:01;;;;;;;30.40;10.90;;;;;;;6.87;100.00;103953.53;5000941;28;20396;-66
2021/12/18 07:44:26;;;;;;;30.83;9.98;;;;;;;6.86;100.00;103952.66;5008338;28;20048;-66
2021/12/18 07:46:51;;;;;;;30.08;10.27;;;;;;;6.87;100.00;103943.47;5007084;28;20029;-66
2021/12/18 07:49:17;;;;;;;29.85;10.05;;;;;;;6.87;100.00;103956.25;5000877;28;20056;-66
2021/12/18 07:51:42;;;;;;;26.73;9.25;;;;;;;6.87;100.00;103962.59;5007942;28;20085;-65
2021/12/18 07:54:07;;;;;;;28.27;9.43;;;;;;;6.88;100.00;103958.00;5007147;28;20034;-66
2021/12/18 07:56:34;;;;;;;25.95;8.88;;;;;;;6.92;100.00;103959.47;5007496;28;20029;-66
2021/12/18 07:59:00;;;;;;;26.38;9.95;;;;;;;6.87;100.00;103959.84;5007753;28;20034;-66
2021/12/18 08:01:26;;;;;;;25.63;9.35;;;;;;;6.86;100.00;103952.66;5006760;28;20022;-65
2021/12/18 08:03:51;;;;;;;24.80;8.35;;;;;;;6.95;100.00;103961.97;5007137;28;20325;-67
2021/12/18 08:06:18;;;;;;;23.38;8.10;;;;;;;6.97;100.00;103951.75;5007097;28;20121;-66
2021/12/18 08:08:44;;;;;;;23.37;8.97;;;;;;;6.97;100.00;103959.94;5007583;28;20049;-66
2021/12/18 08:11:09;;;;;;;19.75;7.55;;;;;;;7.23;100.00;103954.97;5006693;28;20026;-66
2021/12/18 08:13:34;;;;;;;21.50;7.75;;;;;;;7.01;100.00;103950.50;5007695;28;20014;-66
2021/12/18 08:15:59;;;;;;;24.25;9.00;;;;;;;6.88;100.00;103955.25;5007190;28;20030;-66
2021/12/18 08:18:25;;;;;;;26.50;8.70;;;;;;;6.86;100.00;103958.13;5009457;28;20369;-66
2021/12/18 08:20:50;;;;;;;21.55;7.13;;;;;;;6.86;100.00;103951.81;5023503;28;20037;-66
2021/12/18 08:23:16;;;;;;;20.17;6.65;;;;;;;6.84;100.00;103951.91;5025918;28;20131;-66
2021/12/18 08:25:41;;;;;;;20.40;6.60;;;;;;;6.82;100.00;103948.44;5024697;28;20022;-66
2021/12/18 08:28:07;;;;;;;18.70;6.95;;;;;;;6.83;100.00;103950.19;5026060;28;20026;-66
2021/12/18 08:30:35;;;;;;;20.70;7.55;;;;;;;6.83;100.00;103952.06;5026300;28;20523;-66
2021/12/18 08:33:00;;;;;;;16.25;5.70;;;;;;;6.83;100.00;103952.91;5026634;28;20029;-66
2021/12/18 08:35:27;;;;;;;16.23;5.97;;;;;;;6.85;100.00;103955.53;5025205;28;20700;-66
2021/12/18 08:37:53;;;;;;;14.75;5.60;;;;;;;6.85;100.00;103950.94;5026197;28;20061;-65
2021/12/18 08:40:19;;;;;;;17.30;5.85;;;;;;;6.88;100.00;103950.66;5025176;28;20029;-66
2021/12/18 08:42:44;;;;;;;15.13;5.47;;;;;;;6.89;100.00;103954.25;5025965;28;20026;-66
2021/12/18 08:45:11;;;;;;;15.85;5.80;;;;;;;6.91;100.00;103955.00;5025881;28;20025;-65
2021/12/18 08:47:36;;;;;;;15.48;5.10;;;;;;;6.93;100.00;103953.00;5025923;28;20383;-66
2021/12/18 08:50:03;;;;;;;14.85;4.63;;;;;;;6.91;100.00;103953.16;5024892;28;20025;-68
2021/12/18 08:52:28;;;;;;;14.73;5.25;;;;;;;6.94;100.00;103960.19;5013443;28;20472;-66
2021/12/18 08:54:53;;;;;;;13.13;4.22;;;;;;;6.94;100.00;103952.00;5005032;28;20050;-66
2021/12/18 08:57:18;;;;;;;11.27;3.53;;;;;;;6.97;100.00;103965.41;5005421;28;20376;-66
2021/12/18 08:59:44;;;;;;;9.43;3.45;;;;;;;7.07;100.00;103965.50;5006026;28;20111;-66
2021/12/18 09:02:10;;;;;;;15.55;4.40;;;;;;;7.04;100.00;103958.41;5002308;28;20377;-66
2021/12/18 09:04:37;;;;;;;10.07;3.30;;;;;;;7.04;100.00;103952.94;4985598;28;20026;-66
2021/12/18 09:07:03;;;;;;;8.13;3.22;;;;;;;7.09;100.00;103961.63;4986622;28;20036;-68
2021/12/18 09:09:28;;;;;;;10.25;3.65;;;;;;;7.13;100.00;103960.38;4986761;28;20380;-66
2021/12/18 09:11:54;;;;;;;8.05;3.25;;;;;;;7.28;100.00;103959.03;4986390;28;20117;-66
2021/12/18 09:14:19;;;;;;;7.13;2.47;;;;;;;7.31;98.48;103957.06;4986258;28;20019;-66
2021/12/18 09:16:45;;;;;;;6.30;2.67;;;;;;;7.26;98.92;103960.19;4986397;28;20038;-66
2021/12/18 09:19:10;;;;;;;9.05;2.40;;;;;;;7.35;98.04;103961.25;4985160;28;20034;-66
2021/12/18 09:21:35;;;;;;;9.00;3.30;;;;;;;7.28;98.28;103956.31;4986431;28;20069;-66
2021/12/18 09:24:01;;;;;;;8.38;2.78;;;;;;;7.18;99.58;103957.25;4986831;28;20367;-66
2021/12/18 09:26:27;;;;;;;8.65;3.10;;;;;;;7.23;99.83;103955.84;4986416;28;20375;-66
2021/12/18 09:28:52;;;;;;;9.45;3.35;;;;;;;7.23;99.62;103961.31;4986638;28;20026;-66
2021/12/18 09:31:17;;;;;;;8.57;3.33;;;;;;;7.24;100.00;103965.78;4985581;28;20474;-66
2021/12/18 09:33:43;;;;;;;7.90;3.15;;;;;;;7.24;100.00;103962.16;4985894;28;20096;-66
2021/12/18 09:36:08;;;;;;;9.30;3.80;;;;;;;7.29;99.95;103955.31;4985651;28;20085;-66
2021/12/18 09:38:33;;;;;;;9.98;3.40;;;;;;;7.29;99.00;103951.69;4985933;28;20031;-66
2021/12/18 09:41:03;;;;;;;9.55;3.45;;;;;;;7.40;98.15;103953.50;4987354;28;20034;-66
2021/12/18 09:43:29;;;;;;;10.32;3.42;;;;;;;7.14;100.00;103951.16;5006045;28;20099;-66
2021/12/18 09:46:01;;;;;;;12.23;4.32;;;;;;;7.15;100.00;103950.19;5005902;28;20025;-66
2021/12/18 09:48:27;;;;;;;11.68;4.90;;;;;;;7.15;100.00;103952.06;5004455;28;20065;-66
2021/12/18 09:50:56;;;;;;;9.32;3.65;;;;;;;7.15;100.00;103947.44;5004533;28;20682;-66
2021/12/18 09:53:21;;;;;;;11.18;4.18;;;;;;;7.15;100.00;103947.44;5003706;28;20244;-66
2021/12/18 09:55:47;;;;;;;12.05;5.13;;;;;;;7.07;100.00;103949.97;5004140;28;20053;-66
2021/12/18 09:58:12;;;;;;;10.93;4.10;;;;;;;7.06;100.00;103944.63;5005052;28;20025;-66
2021/12/18 10:00:38;;;;;;;10.75;4.30;;;;;;;7.15;99.11;103942.00;5004812;28;20129;-66
2021/12/18 10:03:03;;;;;;;8.48;3.63;;;;;;;7.01;100.00;103942.31;5004963;28;20432;-67
2021/12/18 10:05:32;;;;;;;11.63;4.47;;;;;;;6.99;100.00;103939.72;5004545;28;20476;-66
2021/12/18 10:08:17;;;;;;;12.93;5.35;;;;;;;7.01;100.00;103939.56;5003923;28;20051;-66
2021/12/18 10:11:01;;;;;;;11.75;4.70;;;;;;;7.03;100.00;103940.28;5004311;28;20053;-66
2021/12/18 10:13:26;;;;;;;9.90;4.13;;;;;;;7.00;100.00;103937.84;5005169;28;20040;-66
2021/12/18 10:16:12;;;;;;;10.20;3.85;;;;;;;7.04;100.00;103933.81;5004053;28;20109;-66
2021/12/18 10:18:38;;;;;;;10.27;3.70;;;;;;;7.02;100.00;103927.63;5004258;28;20481;-66
2021/12/18 10:21:12;;;;;;;8.00;3.60;;;;;;;7.00;100.00;103929.63;5004628;28;20120;-66
2021/12/18 10:23:39;;;;;;;9.52;3.63;;;;;;;6.95;100.00;103937.38;5004709;28;20036;-66
2021/12/18 10:26:05;;;;;;;9.77;3.78;;;;;;;6.93;100.00;103932.00;5003967;28;20029;-66
2021/12/18 10:28:43;;;;;;;10.07;3.95;;;;;;;6.95;100.00;103923.69;5004003;28;20030;-66
2021/12/18 10:31:08;;;;;;;;;;;;;;;7.08;100.00;103924.34;5003393;28;20527;-66
2021/12/18 10:33:35;;;;;;;9.73;4.10;;;;;;;7.02;100.00;103928.50;5003952;28;19956;-66
2021/12/18 10:36:02;;;;;;;9.82;4.32;;;;;;;7.09;100.00;103926.09;5003740;28;20794;-66
2021/12/18 10:38:37;;;;;;;13.02;4.53;;;;;;;7.12;100.00;103925.84;5004654;28;20117;-66
2021/12/18 10:41:20;;;;;;;10.88;4.30;;;;;;;7.16;100.00;103916.38;5004042;28;20041;-66
2021/12/18 10:44:09;;;;;;;11.52;5.47;;;;;;;7.11;99.25;103918.66;5004716;28;20550;-66
2021/12/18 10:46:41;;;;;;;10.02;5.07;;;;;;;7.07;100.00;103924.50;5004107;28;20037;-66
2021/12/18 10:49:12;;;;;;;11.07;4.65;;;;;;;7.13;100.00;103930.31;5003347;28;20029;-66
2021/12/18 10:51:38;;;;;;;14.20;6.00;;;;;;;7.10;100.00;103921.53;5004608;28;20384;-66
2021/12/18 10:54:11;;;;;;;12.07;5.68;;;;;;;7.12;99.83;103914.03;5004033;28;20053;-66
2021/12/18 10:56:38;;;;;;;12.35;5.88;;;;;;;7.14;100.00;103912.88;5004233;28;20366;-66
2021/12/18 10:59:17;;;;;;;15.73;5.82;;;;;;;7.15;100.00;103916.53;5003368;28;20112;-66
2021/12/18 11:01:43;;;;;;;13.43;6.20;;;;;;;7.14;100.00;103917.50;5004185;28;20392;-66
2021/12/18 11:04:08;;;;;;;13.80;6.63;;;;;;;7.11;100.00;103913.19;4998894;28;20484;-66
2021/12/18 11:06:38;;;;;;;16.48;7.97;;;;;;;7.10;100.00;103911.44;5003668;28;20053;-66
2021/12/18 11:09:28;;;;;;;15.10;8.02;;;;;;;7.05;100.00;103912.84;5003810;28;20030;-66
2021/12/18 11:14:37;;;;;;;17.95;7.55;;;;;;;6.94;100.00;103917.34;5004634;28;20033;-66
2021/12/18 11:17:05;;;;;;;13.30;7.85;;;;;;;6.94;100.00;103917.34;5003341;28;20034;-67
2021/12/18 11:19:32;;;;;;;12.77;6.75;;;;;;;6.92;100.00;103919.34;5004009;28;20037;-66
2021/12/18 11:22:00;;;;;;;13.25;6.95;;;;;;;6.88;100.00;103917.00;5004317;28;20034;-66
2021/12/18 11:24:33;;;;;;;16.05;6.82;;;;;;;6.85;100.00;103923.63;5004256;28;20088;-66
2021/12/18 11:27:08;;;;;;;14.27;7.35;;;;;;;6.84;100.00;103912.81;5019288;28;20668;-65
2021/12/18 11:29:46;;;;;;;15.10;6.03;;;;;;;6.79;100.00;103912.31;5004132;28;20030;-65
2021/12/18 11:32:16;;;;;;;12.18;6.18;;;;;;;6.71;100.00;103908.41;5003796;28;20094;-65
2021/12/18 11:34:42;;;;;;;13.45;6.53;;;;;;;6.72;100.00;103906.53;5002682;28;20033;-66
2021/12/18 11:37:10;;;;;;;11.82;6.22;;;;;;;6.73;100.00;103911.84;5003718;28;20037;-66
2021/12/18 11:39:37;;;;;;;10.77;6.23;;;;;;;6.73;100.00;103908.25;5004380;28;20117;-66
2021/12/18 11:42:03;;;;;;;12.05;5.75;;;;;;;6.72;100.00;103907.38;5003092;28;20048;-66
2021/12/18 11:44:31;;;;;;;12.57;6.63;;;;;;;6.72;100.00;103907.38;5004391;28;20429;-66
2021/12/18 11:47:18;;;;;;;11.52;6.78;;;;;;;6.70;100.00;103903.94;5004562;28;20034;-66
2021/12/18 11:49:43;;;;;;;14.52;5.97;;;;;;;6.71;100.00;103902.94;5002990;28;20030;-66
2021/12/18 11:52:09;;;;;;;13.10;6.55;;;;;;;6.75;100.00;103901.69;5003680;28;20033;-66
2021/12/18 11:54:48;;;;;;;11.73;6.40;;;;;;;6.76;99.90;103897.94;5003534;28;20034;-66
2021/12/18 11:57:35;;;;;;;14.15;7.13;;;;;;;6.68;100.00;103894.13;5003432;28;20508;-66
2021/12/18 12:00:00;;;;;;;13.82;6.82;;;;;;;6.63;100.00;103889.03;5003883;28;20103;-66